sensor_id;sensor_type;location;lat;lon;timestamp;P1;durP1;ratioP1;P2;durP2;ratioP2
12884;SDS011;6510;51.362;7.370;2023-03-11T00:00:26;7.40;;;5.20;;
12884;SDS011;6510;51.362;7.370;2023-03-11T00:02:53;5.97;;;5.20;;
12884;SDS011;6510;51.362;7.370;2023-03-11T00:05:21;6.73;;;4.93;;
12884;SDS011;6510;51.362;7.370;2023-03-11T00:07:52;5.83;;;4.93;;
12884;SDS011;6510;51.362;7.370;2023-03-11T00:10:23;6.40;;;4.90;;
12884;SDS011;6510;51.362;7.370;2023-03-11T00:12:53;4.67;;;4.20;;
12884;SDS011;6510;51.362;7.370;2023-03-11T00:15:19;5.57;;;4.97;;
12884;SDS011;6510;51.362;7.370;2023-03-11T00:17:46;6.17;;;4.87;;
12884;SDS011;6510;51.362;7.370;2023-03-11T00:20:17;4.77;;;4.13;;
12884;SDS011;6510;51.362;7.370;2023-03-11T00:23:04;5.83;;;4.57;;
12884;SDS011;6510;51.362;7.370;2023-03-11T00:25:33;5.70;;;4.70;;
12884;SDS011;6510;51.362;7.370;2023-03-11T00:28:00;6.00;;;4.67;;
12884;SDS011;6510;51.362;7.370;2023-03-11T00:30:26;6.23;;;4.50;;
12884;SDS011;6510;51.362;7.370;2023-03-11T00:32:53;5.60;;;4.40;;
12884;SDS011;6510;51.362;7.370;2023-03-11T00:35:25;4.80;;;4.40;;
12884;SDS011;6510;51.362;7.370;2023-03-11T00:38:00;5.30;;;4.53;;
12884;SDS011;6510;51.362;7.370;2023-03-11T00:43:31;6.40;;;5.03;;
12884;SDS011;6510;51.362;7.370;2023-03-11T00:46:01;6.70;;;4.87;;
12884;SDS011;6510;51.362;7.370;2023-03-11T00:48:36;6.70;;;5.13;;
12884;SDS011;6510;51.362;7.370;2023-03-11T00:51:01;5.83;;;4.97;;
12884;SDS011;6510;51.362;7.370;2023-03-11T00:53:27;6.27;;;5.20;;
12884;SDS011;6510;51.362;7.370;2023-03-11T00:55:53;6.30;;;4.80;;
12884;SDS011;6510;51.362;7.370;2023-03-11T00:58:18;6.40;;;4.97;;
12884;SDS011;6510;51.362;7.370;2023-03-11T01:00:46;5.77;;;4.77;;
12884;SDS011;6510;51.362;7.370;2023-03-11T01:03:12;5.10;;;4.43;;
12884;SDS011;6510;51.362;7.370;2023-03-11T01:05:38;7.47;;;5.07;;
12884;SDS011;6510;51.362;7.370;2023-03-11T01:08:04;6.63;;;5.50;;
12884;SDS011;6510;51.362;7.370;2023-03-11T01:10:30;5.83;;;4.60;;
12884;SDS011;6510;51.362;7.370;2023-03-11T01:12:57;5.67;;;4.73;;
12884;SDS011;6510;51.362;7.370;2023-03-11T01:15:24;6.53;;;4.57;;
12884;SDS011;6510;51.362;7.370;2023-03-11T01:17:52;6.03;;;4.93;;
12884;SDS011;6510;51.362;7.370;2023-03-11T01:20:18;6.17;;;4.90;;
12884;SDS011;6510;51.362;7.370;2023-03-11T01:22:43;5.80;;;5.20;;
12884;SDS011;6510;51.362;7.370;2023-03-11T01:25:10;5.50;;;4.47;;
12884;SDS011;6510;51.362;7.370;2023-03-11T01:27:41;5.73;;;4.40;;
12884;SDS011;6510;51.362;7.370;2023-03-11T01:30:09;5.73;;;5.00;;
12884;SDS011;6510;51.362;7.370;2023-03-11T01:32:39;5.80;;;4.97;;
12884;SDS011;6510;51.362;7.370;2023-03-11T01:35:04;6.50;;;4.17;;
12884;SDS011;6510;51.362;7.370;2023-03-11T01:37:30;5.17;;;4.33;;
12884;SDS011;6510;51.362;7.370;2023-03-11T01:39:56;4.73;;;4.13;;
12884;SDS011;6510;51.362;7.370;2023-03-11T01:42:22;5.10;;;4.40;;
12884;SDS011;6510;51.362;7.370;2023-03-11T01:44:48;4.83;;;4.33;;
12884;SDS011;6510;51.362;7.370;2023-03-11T01:49:55;5.77;;;4.17;;
12884;SDS011;6510;51.362;7.370;2023-03-11T01:52:21;7.27;;;4.10;;
12884;SDS011;6510;51.362;7.370;2023-03-11T01:54:47;4.83;;;3.90;;
12884;SDS011;6510;51.362;7.370;2023-03-11T01:57:12;4.93;;;4.37;;
12884;SDS011;6510;51.362;7.370;2023-03-11T01:59:41;5.73;;;3.97;;
12884;SDS011;6510;51.362;7.370;2023-03-11T02:02:19;7.60;;;3.83;;
12884;SDS011;6510;51.362;7.370;2023-03-11T02:04:49;5.00;;;3.07;;
12884;SDS011;6510;51.362;7.370;2023-03-11T02:07:15;4.37;;;3.80;;
12884;SDS011;6510;51.362;7.370;2023-03-11T02:09:41;4.27;;;3.70;;
12884;SDS011;6510;51.362;7.370;2023-03-11T02:12:08;6.77;;;3.80;;
12884;SDS011;6510;51.362;7.370;2023-03-11T02:14:37;5.80;;;3.40;;
12884;SDS011;6510;51.362;7.370;2023-03-11T02:17:06;3.50;;;3.20;;
12884;SDS011;6510;51.362;7.370;2023-03-11T02:22:36;6.00;;;3.77;;
12884;SDS011;6510;51.362;7.370;2023-03-11T02:27:42;4.20;;;3.27;;
12884;SDS011;6510;51.362;7.370;2023-03-11T02:30:12;6.83;;;3.57;;
12884;SDS011;6510;51.362;7.370;2023-03-11T02:32:38;3.90;;;3.17;;
12884;SDS011;6510;51.362;7.370;2023-03-11T02:35:05;5.53;;;3.00;;
12884;SDS011;6510;51.362;7.370;2023-03-11T02:37:31;5.07;;;3.13;;
12884;SDS011;6510;51.362;7.370;2023-03-11T02:40:19;4.50;;;2.60;;
12884;SDS011;6510;51.362;7.370;2023-03-11T02:42:42;4.27;;;2.47;;
12884;SDS011;6510;51.362;7.370;2023-03-11T02:45:09;5.97;;;2.87;;
12884;SDS011;6510;51.362;7.370;2023-03-11T02:47:38;5.33;;;2.83;;
12884;SDS011;6510;51.362;7.370;2023-03-11T02:50:05;5.90;;;3.07;;
12884;SDS011;6510;51.362;7.370;2023-03-11T02:52:32;7.37;;;3.37;;
12884;SDS011;6510;51.362;7.370;2023-03-11T02:54:59;7.30;;;2.87;;
12884;SDS011;6510;51.362;7.370;2023-03-11T02:57:25;6.17;;;3.17;;
12884;SDS011;6510;51.362;7.370;2023-03-11T02:59:50;4.57;;;2.67;;
12884;SDS011;6510;51.362;7.370;2023-03-11T03:02:16;5.77;;;3.40;;
12884;SDS011;6510;51.362;7.370;2023-03-11T03:04:41;7.63;;;3.10;;
12884;SDS011;6510;51.362;7.370;2023-03-11T03:07:07;6.67;;;3.33;;
12884;SDS011;6510;51.362;7.370;2023-03-11T03:09:33;4.27;;;3.10;;
12884;SDS011;6510;51.362;7.370;2023-03-11T03:11:59;7.70;;;3.70;;
12884;SDS011;6510;51.362;7.370;2023-03-11T03:14:25;6.17;;;3.30;;
12884;SDS011;6510;51.362;7.370;2023-03-11T03:16:51;6.27;;;3.50;;
12884;SDS011;6510;51.362;7.370;2023-03-11T03:19:17;7.20;;;3.83;;
12884;SDS011;6510;51.362;7.370;2023-03-11T03:21:42;7.57;;;4.20;;
12884;SDS011;6510;51.362;7.370;2023-03-11T03:24:08;6.00;;;3.50;;
12884;SDS011;6510;51.362;7.370;2023-03-11T03:26:34;8.13;;;4.43;;
12884;SDS011;6510;51.362;7.370;2023-03-11T03:29:00;10.20;;;4.70;;
12884;SDS011;6510;51.362;7.370;2023-03-11T03:31:26;7.97;;;4.60;;
12884;SDS011;6510;51.362;7.370;2023-03-11T03:33:51;9.93;;;4.63;;
12884;SDS011;6510;51.362;7.370;2023-03-11T03:36:17;8.47;;;5.10;;
12884;SDS011;6510;51.362;7.370;2023-03-11T03:38:43;7.87;;;4.97;;
12884;SDS011;6510;51.362;7.370;2023-03-11T03:41:08;10.63;;;5.00;;
12884;SDS011;6510;51.362;7.370;2023-03-11T03:43:37;13.47;;;5.60;;
12884;SDS011;6510;51.362;7.370;2023-03-11T03:46:03;12.93;;;6.13;;
12884;SDS011;6510;51.362;7.370;2023-03-11T03:48:29;9.27;;;5.77;;
12884;SDS011;6510;51.362;7.370;2023-03-11T03:50:55;14.07;;;5.50;;
12884;SDS011;6510;51.362;7.370;2023-03-11T03:53:25;11.17;;;5.30;;
12884;SDS011;6510;51.362;7.370;2023-03-11T03:55:51;13.60;;;5.60;;
12884;SDS011;6510;51.362;7.370;2023-03-11T03:58:18;8.80;;;5.17;;
12884;SDS011;6510;51.362;7.370;2023-03-11T04:00:44;8.67;;;5.30;;
12884;SDS011;6510;51.362;7.370;2023-03-11T04:03:10;12.30;;;5.17;;
12884;SDS011;6510;51.362;7.370;2023-03-11T04:05:35;8.73;;;5.23;;
12884;SDS011;6510;51.362;7.370;2023-03-11T04:08:01;10.07;;;5.27;;
12884;SDS011;6510;51.362;7.370;2023-03-11T04:10:26;7.47;;;5.07;;
12884;SDS011;6510;51.362;7.370;2023-03-11T04:12:52;12.53;;;4.87;;
12884;SDS011;6510;51.362;7.370;2023-03-11T04:15:18;7.90;;;4.70;;
12884;SDS011;6510;51.362;7.370;2023-03-11T04:17:43;9.47;;;4.87;;
12884;SDS011;6510;51.362;7.370;2023-03-11T04:20:09;9.57;;;4.50;;
12884;SDS011;6510;51.362;7.370;2023-03-11T04:22:35;10.20;;;4.30;;
12884;SDS011;6510;51.362;7.370;2023-03-11T04:25:01;7.60;;;3.80;;
12884;SDS011;6510;51.362;7.370;2023-03-11T04:27:27;7.67;;;3.90;;
12884;SDS011;6510;51.362;7.370;2023-03-11T04:29:53;6.70;;;3.97;;
12884;SDS011;6510;51.362;7.370;2023-03-11T04:32:18;9.13;;;4.43;;
12884;SDS011;6510;51.362;7.370;2023-03-11T04:34:44;9.87;;;4.33;;
12884;SDS011;6510;51.362;7.370;2023-03-11T04:37:09;11.33;;;4.30;;
12884;SDS011;6510;51.362;7.370;2023-03-11T04:39:35;7.00;;;3.83;;
12884;SDS011;6510;51.362;7.370;2023-03-11T04:42:01;10.83;;;3.40;;
12884;SDS011;6510;51.362;7.370;2023-03-11T04:44:26;8.03;;;3.87;;
12884;SDS011;6510;51.362;7.370;2023-03-11T04:46:52;7.00;;;3.63;;
12884;SDS011;6510;51.362;7.370;2023-03-11T04:49:17;8.47;;;3.10;;
12884;SDS011;6510;51.362;7.370;2023-03-11T04:51:43;8.00;;;3.07;;
12884;SDS011;6510;51.362;7.370;2023-03-11T04:54:08;8.70;;;3.77;;
12884;SDS011;6510;51.362;7.370;2023-03-11T04:56:34;8.43;;;3.13;;
12884;SDS011;6510;51.362;7.370;2023-03-11T04:59:00;6.27;;;3.77;;
12884;SDS011;6510;51.362;7.370;2023-03-11T05:01:26;8.67;;;3.10;;
12884;SDS011;6510;51.362;7.370;2023-03-11T05:03:52;6.57;;;3.60;;
12884;SDS011;6510;51.362;7.370;2023-03-11T05:06:17;6.90;;;2.93;;
12884;SDS011;6510;51.362;7.370;2023-03-11T05:08:43;11.47;;;2.90;;
12884;SDS011;6510;51.362;7.370;2023-03-11T05:11:09;6.27;;;2.90;;
12884;SDS011;6510;51.362;7.370;2023-03-11T05:13:34;5.63;;;2.77;;
12884;SDS011;6510;51.362;7.370;2023-03-11T05:16:00;7.60;;;2.90;;
12884;SDS011;6510;51.362;7.370;2023-03-11T05:18:25;10.87;;;3.37;;
12884;SDS011;6510;51.362;7.370;2023-03-11T05:20:51;8.27;;;2.57;;
12884;SDS011;6510;51.362;7.370;2023-03-11T05:23:17;8.27;;;2.50;;
12884;SDS011;6510;51.362;7.370;2023-03-11T05:25:46;6.73;;;3.20;;
12884;SDS011;6510;51.362;7.370;2023-03-11T05:28:11;8.67;;;2.57;;
12884;SDS011;6510;51.362;7.370;2023-03-11T05:30:37;12.07;;;3.00;;
12884;SDS011;6510;51.362;7.370;2023-03-11T05:33:03;12.53;;;2.73;;
12884;SDS011;6510;51.362;7.370;2023-03-11T05:35:28;6.23;;;2.83;;
12884;SDS011;6510;51.362;7.370;2023-03-11T05:37:54;8.40;;;2.63;;
12884;SDS011;6510;51.362;7.370;2023-03-11T05:40:20;7.03;;;2.33;;
12884;SDS011;6510;51.362;7.370;2023-03-11T05:42:46;5.03;;;2.63;;
12884;SDS011;6510;51.362;7.370;2023-03-11T05:45:11;4.50;;;2.70;;
12884;SDS011;6510;51.362;7.370;2023-03-11T05:47:37;12.23;;;3.00;;
12884;SDS011;6510;51.362;7.370;2023-03-11T05:50:06;7.37;;;2.77;;
12884;SDS011;6510;51.362;7.370;2023-03-11T05:52:33;8.47;;;3.67;;
12884;SDS011;6510;51.362;7.370;2023-03-11T05:54:58;5.67;;;3.30;;
12884;SDS011;6510;51.362;7.370;2023-03-11T05:57:24;13.90;;;3.10;;
12884;SDS011;6510;51.362;7.370;2023-03-11T05:59:50;6.40;;;2.80;;
12884;SDS011;6510;51.362;7.370;2023-03-11T06:02:15;5.40;;;2.57;;
12884;SDS011;6510;51.362;7.370;2023-03-11T06:04:41;8.33;;;3.00;;
12884;SDS011;6510;51.362;7.370;2023-03-11T06:07:06;6.70;;;2.97;;
12884;SDS011;6510;51.362;7.370;2023-03-11T06:09:32;5.20;;;3.17;;
12884;SDS011;6510;51.362;7.370;2023-03-11T06:12:01;7.57;;;3.00;;
12884;SDS011;6510;51.362;7.370;2023-03-11T06:14:27;10.43;;;2.80;;
12884;SDS011;6510;51.362;7.370;2023-03-11T06:16:55;9.07;;;3.00;;
12884;SDS011;6510;51.362;7.370;2023-03-11T06:19:22;8.20;;;2.60;;
12884;SDS011;6510;51.362;7.370;2023-03-11T06:21:47;4.57;;;2.40;;
12884;SDS011;6510;51.362;7.370;2023-03-11T06:24:13;5.27;;;2.90;;
12884;SDS011;6510;51.362;7.370;2023-03-11T06:26:38;5.63;;;2.70;;
12884;SDS011;6510;51.362;7.370;2023-03-11T06:29:05;8.97;;;3.00;;
12884;SDS011;6510;51.362;7.370;2023-03-11T06:31:35;8.00;;;2.60;;
12884;SDS011;6510;51.362;7.370;2023-03-11T06:34:01;4.37;;;2.90;;
12884;SDS011;6510;51.362;7.370;2023-03-11T06:36:26;8.83;;;4.00;;
12884;SDS011;6510;51.362;7.370;2023-03-11T06:38:52;6.60;;;3.03;;
12884;SDS011;6510;51.362;7.370;2023-03-11T06:44:05;20.10;;;8.47;;
12884;SDS011;6510;51.362;7.370;2023-03-11T06:46:31;22.57;;;7.90;;
12884;SDS011;6510;51.362;7.370;2023-03-11T06:49:03;12.57;;;5.13;;
12884;SDS011;6510;51.362;7.370;2023-03-11T06:51:29;9.57;;;3.50;;
12884;SDS011;6510;51.362;7.370;2023-03-11T06:53:55;6.50;;;3.03;;
12884;SDS011;6510;51.362;7.370;2023-03-11T06:56:21;4.43;;;2.63;;
12884;SDS011;6510;51.362;7.370;2023-03-11T06:58:47;5.27;;;2.17;;
12884;SDS011;6510;51.362;7.370;2023-03-11T07:01:18;4.00;;;2.50;;
12884;SDS011;6510;51.362;7.370;2023-03-11T07:03:48;4.93;;;1.90;;
12884;SDS011;6510;51.362;7.370;2023-03-11T07:06:19;9.20;;;2.57;;
12884;SDS011;6510;51.362;7.370;2023-03-11T07:08:47;11.40;;;5.47;;
12884;SDS011;6510;51.362;7.370;2023-03-11T07:11:18;8.73;;;3.40;;
12884;SDS011;6510;51.362;7.370;2023-03-11T07:13:49;6.10;;;2.30;;
12884;SDS011;6510;51.362;7.370;2023-03-11T07:16:16;7.63;;;2.30;;
12884;SDS011;6510;51.362;7.370;2023-03-11T07:18:44;6.57;;;2.00;;
12884;SDS011;6510;51.362;7.370;2023-03-11T07:21:13;7.13;;;2.00;;
12884;SDS011;6510;51.362;7.370;2023-03-11T07:23:40;3.93;;;2.13;;
12884;SDS011;6510;51.362;7.370;2023-03-11T07:26:10;5.37;;;2.00;;
12884;SDS011;6510;51.362;7.370;2023-03-11T07:28:37;7.67;;;2.17;;
12884;SDS011;6510;51.362;7.370;2023-03-11T07:31:10;3.70;;;2.10;;
12884;SDS011;6510;51.362;7.370;2023-03-11T07:33:38;3.43;;;1.83;;
12884;SDS011;6510;51.362;7.370;2023-03-11T07:36:05;4.27;;;2.60;;
12884;SDS011;6510;51.362;7.370;2023-03-11T07:38:35;4.50;;;2.30;;
12884;SDS011;6510;51.362;7.370;2023-03-11T07:41:01;7.17;;;2.13;;
12884;SDS011;6510;51.362;7.370;2023-03-11T07:43:27;2.70;;;1.77;;
12884;SDS011;6510;51.362;7.370;2023-03-11T07:46:12;4.50;;;1.80;;
12884;SDS011;6510;51.362;7.370;2023-03-11T07:48:41;6.93;;;1.93;;
12884;SDS011;6510;51.362;7.370;2023-03-11T07:51:08;5.23;;;2.00;;
12884;SDS011;6510;51.362;7.370;2023-03-11T07:53:39;8.67;;;2.23;;
12884;SDS011;6510;51.362;7.370;2023-03-11T07:56:05;4.27;;;2.10;;
12884;SDS011;6510;51.362;7.370;2023-03-11T07:58:32;4.00;;;1.60;;
12884;SDS011;6510;51.362;7.370;2023-03-11T08:01:05;7.20;;;2.23;;
12884;SDS011;6510;51.362;7.370;2023-03-11T08:03:32;6.63;;;2.30;;
12884;SDS011;6510;51.362;7.370;2023-03-11T08:05:59;5.20;;;1.90;;
12884;SDS011;6510;51.362;7.370;2023-03-11T08:08:24;4.23;;;2.10;;
12884;SDS011;6510;51.362;7.370;2023-03-11T08:10:50;5.50;;;1.93;;
12884;SDS011;6510;51.362;7.370;2023-03-11T08:13:16;2.37;;;1.57;;
12884;SDS011;6510;51.362;7.370;2023-03-11T08:15:42;5.07;;;2.03;;
12884;SDS011;6510;51.362;7.370;2023-03-11T08:18:07;3.67;;;1.90;;
12884;SDS011;6510;51.362;7.370;2023-03-11T08:20:33;4.93;;;2.27;;
12884;SDS011;6510;51.362;7.370;2023-03-11T08:23:00;3.90;;;1.63;;
12884;SDS011;6510;51.362;7.370;2023-03-11T08:25:25;4.10;;;2.03;;
12884;SDS011;6510;51.362;7.370;2023-03-11T08:27:51;7.23;;;1.90;;
12884;SDS011;6510;51.362;7.370;2023-03-11T08:30:17;2.93;;;2.00;;
12884;SDS011;6510;51.362;7.370;2023-03-11T08:32:42;4.70;;;1.90;;
12884;SDS011;6510;51.362;7.370;2023-03-11T08:35:08;5.80;;;2.80;;
12884;SDS011;6510;51.362;7.370;2023-03-11T08:37:35;3.73;;;2.47;;
12884;SDS011;6510;51.362;7.370;2023-03-11T08:40:00;3.93;;;2.27;;
12884;SDS011;6510;51.362;7.370;2023-03-11T08:42:26;3.90;;;2.30;;
12884;SDS011;6510;51.362;7.370;2023-03-11T08:44:52;5.53;;;2.10;;
12884;SDS011;6510;51.362;7.370;2023-03-11T08:47:17;2.90;;;1.90;;
12884;SDS011;6510;51.362;7.370;2023-03-11T08:49:43;3.80;;;2.10;;
12884;SDS011;6510;51.362;7.370;2023-03-11T08:52:08;5.20;;;2.13;;
12884;SDS011;6510;51.362;7.370;2023-03-11T08:54:34;3.47;;;2.03;;
12884;SDS011;6510;51.362;7.370;2023-03-11T08:57:00;4.20;;;2.13;;
12884;SDS011;6510;51.362;7.370;2023-03-11T08:59:30;4.03;;;1.90;;
12884;SDS011;6510;51.362;7.370;2023-03-11T09:01:56;2.70;;;1.80;;
12884;SDS011;6510;51.362;7.370;2023-03-11T09:04:21;5.10;;;1.83;;
12884;SDS011;6510;51.362;7.370;2023-03-11T09:06:47;3.93;;;2.00;;
12884;SDS011;6510;51.362;7.370;2023-03-11T09:09:13;3.47;;;2.23;;
12884;SDS011;6510;51.362;7.370;2023-03-11T09:11:40;4.47;;;1.87;;
12884;SDS011;6510;51.362;7.370;2023-03-11T09:14:06;3.03;;;2.00;;
12884;SDS011;6510;51.362;7.370;2023-03-11T09:16:32;4.23;;;2.23;;
12884;SDS011;6510;51.362;7.370;2023-03-11T09:18:57;5.77;;;2.13;;
12884;SDS011;6510;51.362;7.370;2023-03-11T09:21:27;4.43;;;1.90;;
12884;SDS011;6510;51.362;7.370;2023-03-11T09:23:53;2.97;;;1.70;;
12884;SDS011;6510;51.362;7.370;2023-03-11T09:26:18;2.43;;;1.70;;
12884;SDS011;6510;51.362;7.370;2023-03-11T09:28:44;3.10;;;1.73;;
12884;SDS011;6510;51.362;7.370;2023-03-11T09:31:16;5.30;;;2.20;;
12884;SDS011;6510;51.362;7.370;2023-03-11T09:33:44;4.37;;;2.00;;
12884;SDS011;6510;51.362;7.370;2023-03-11T09:36:12;3.43;;;2.07;;
12884;SDS011;6510;51.362;7.370;2023-03-11T09:38:39;4.37;;;1.87;;
12884;SDS011;6510;51.362;7.370;2023-03-11T09:52:12;2.75;;;1.48;;
12884;SDS011;6510;51.362;7.370;2023-03-11T09:54:40;3.73;;;1.40;;
12884;SDS011;6510;51.362;7.370;2023-03-11T09:57:18;2.60;;;1.63;;
12884;SDS011;6510;51.362;7.370;2023-03-11T09:59:48;2.47;;;1.60;;
12884;SDS011;6510;51.362;7.370;2023-03-11T10:02:16;2.33;;;1.73;;
12884;SDS011;6510;51.362;7.370;2023-03-11T10:07:40;4.40;;;1.67;;
12884;SDS011;6510;51.362;7.370;2023-03-11T10:10:12;2.50;;;1.43;;
12884;SDS011;6510;51.362;7.370;2023-03-11T10:12:43;1.90;;;1.33;;
12884;SDS011;6510;51.362;7.370;2023-03-11T10:15:16;1.97;;;1.40;;
12884;SDS011;6510;51.362;7.370;2023-03-11T10:18:17;1.47;;;1.37;;
12884;SDS011;6510;51.362;7.370;2023-03-11T10:21:16;2.53;;;1.60;;
12884;SDS011;6510;51.362;7.370;2023-03-11T10:27:00;1.73;;;1.40;;
12884;SDS011;6510;51.362;7.370;2023-03-11T10:29:42;2.93;;;1.37;;
12884;SDS011;6510;51.362;7.370;2023-03-11T10:32:20;1.27;;;1.17;;
12884;SDS011;6510;51.362;7.370;2023-03-11T10:35:05;2.23;;;1.20;;
12884;SDS011;6510;51.362;7.370;2023-03-11T10:37:41;3.40;;;1.23;;
12884;SDS011;6510;51.362;7.370;2023-03-11T10:42:53;2.57;;;1.37;;
12884;SDS011;6510;51.362;7.370;2023-03-11T10:45:21;2.50;;;1.40;;
12884;SDS011;6510;51.362;7.370;2023-03-11T10:47:47;2.20;;;1.30;;
12884;SDS011;6510;51.362;7.370;2023-03-11T10:50:14;3.30;;;1.53;;
12884;SDS011;6510;51.362;7.370;2023-03-11T10:55:47;5.53;;;1.40;;
12884;SDS011;6510;51.362;7.370;2023-03-11T10:58:16;2.50;;;1.20;;
12884;SDS011;6510;51.362;7.370;2023-03-11T11:00:43;5.60;;;1.40;;
12884;SDS011;6510;51.362;7.370;2023-03-11T11:03:18;3.47;;;1.20;;
12884;SDS011;6510;51.362;7.370;2023-03-11T11:06:00;6.03;;;1.13;;
12884;SDS011;6510;51.362;7.370;2023-03-11T11:08:29;6.43;;;1.13;;
12884;SDS011;6510;51.362;7.370;2023-03-11T11:10:56;1.80;;;1.00;;
12884;SDS011;6510;51.362;7.370;2023-03-11T11:13:25;1.77;;;1.20;;
12884;SDS011;6510;51.362;7.370;2023-03-11T11:18:46;2.80;;;1.10;;
12884;SDS011;6510;51.362;7.370;2023-03-11T11:21:32;1.00;;;0.90;;
12884;SDS011;6510;51.362;7.370;2023-03-11T11:24:44;3.20;;;0.93;;
12884;SDS011;6510;51.362;7.370;2023-03-11T11:29:38;1.90;;;1.13;;
12884;SDS011;6510;51.362;7.370;2023-03-11T11:34:58;1.80;;;1.00;;
12884;SDS011;6510;51.362;7.370;2023-03-11T11:37:54;3.23;;;1.20;;
12884;SDS011;6510;51.362;7.370;2023-03-11T11:40:29;2.87;;;1.30;;
12884;SDS011;6510;51.362;7.370;2023-03-11T11:46:06;4.60;;;1.20;;
12884;SDS011;6510;51.362;7.370;2023-03-11T11:51:40;2.07;;;0.93;;
12884;SDS011;6510;51.362;7.370;2023-03-11T11:56:42;4.50;;;1.10;;
12884;SDS011;6510;51.362;7.370;2023-03-11T11:59:13;2.13;;;1.10;;
12884;SDS011;6510;51.362;7.370;2023-03-11T12:01:52;1.83;;;1.00;;
12884;SDS011;6510;51.362;7.370;2023-03-11T12:10:48;1.37;;;1.10;;
12884;SDS011;6510;51.362;7.370;2023-03-11T12:13:39;2.40;;;1.10;;
12884;SDS011;6510;51.362;7.370;2023-03-11T12:19:18;3.13;;;0.90;;
12884;SDS011;6510;51.362;7.370;2023-03-11T12:27:21;3.73;;;1.33;;
12884;SDS011;6510;51.362;7.370;2023-03-11T12:30:16;1.00;;;0.90;;
12884;SDS011;6510;51.362;7.370;2023-03-11T12:32:53;2.40;;;1.03;;
12884;SDS011;6510;51.362;7.370;2023-03-11T12:35:23;2.10;;;1.07;;
12884;SDS011;6510;51.362;7.370;2023-03-11T12:38:03;1.47;;;1.23;;
12884;SDS011;6510;51.362;7.370;2023-03-11T12:46:00;3.90;;;1.30;;
12884;SDS011;6510;51.362;7.370;2023-03-11T12:50:54;1.47;;;1.37;;
12884;SDS011;6510;51.362;7.370;2023-03-11T12:53:40;2.53;;;1.20;;
12884;SDS011;6510;51.362;7.370;2023-03-11T13:15:55;1.63;;;1.20;;
12884;SDS011;6510;51.362;7.370;2023-03-11T13:18:28;3.67;;;1.40;;
12884;SDS011;6510;51.362;7.370;2023-03-11T13:21:00;1.30;;;1.20;;
12884;SDS011;6510;51.362;7.370;2023-03-11T13:37:38;2.97;;;1.20;;
12884;SDS011;6510;51.362;7.370;2023-03-11T13:42:44;3.07;;;1.30;;
12884;SDS011;6510;51.362;7.370;2023-03-11T13:45:21;2.43;;;1.40;;
12884;SDS011;6510;51.362;7.370;2023-03-11T13:47:56;2.63;;;1.27;;
12884;SDS011;6510;51.362;7.370;2023-03-11T13:50:34;4.67;;;1.23;;
12884;SDS011;6510;51.362;7.370;2023-03-11T13:53:05;1.87;;;1.10;;
12884;SDS011;6510;51.362;7.370;2023-03-11T13:55:34;3.67;;;1.00;;
12884;SDS011;6510;51.362;7.370;2023-03-11T13:58:28;1.30;;;0.90;;
12884;SDS011;6510;51.362;7.370;2023-03-11T14:00:58;1.50;;;0.90;;
12884;SDS011;6510;51.362;7.370;2023-03-11T14:03:26;3.70;;;0.93;;
12884;SDS011;6510;51.362;7.370;2023-03-11T14:06:04;2.63;;;1.10;;
12884;SDS011;6510;51.362;7.370;2023-03-11T14:08:33;3.17;;;1.40;;
12884;SDS011;6510;51.362;7.370;2023-03-11T14:11:01;1.43;;;0.97;;
12884;SDS011;6510;51.362;7.370;2023-03-11T14:13:28;3.40;;;0.90;;
12884;SDS011;6510;51.362;7.370;2023-03-11T14:18:29;2.43;;;0.87;;
12884;SDS011;6510;51.362;7.370;2023-03-11T14:21:03;2.83;;;1.00;;
12884;SDS011;6510;51.362;7.370;2023-03-11T14:23:38;0.83;;;0.83;;
12884;SDS011;6510;51.362;7.370;2023-03-11T14:26:06;2.20;;;1.10;;
12884;SDS011;6510;51.362;7.370;2023-03-11T14:28:37;1.90;;;1.07;;
12884;SDS011;6510;51.362;7.370;2023-03-11T14:31:05;2.60;;;0.87;;
12884;SDS011;6510;51.362;7.370;2023-03-11T14:33:31;3.07;;;1.00;;
12884;SDS011;6510;51.362;7.370;2023-03-11T14:35:58;3.70;;;1.00;;
12884;SDS011;6510;51.362;7.370;2023-03-11T14:38:30;2.10;;;0.83;;
12884;SDS011;6510;51.362;7.370;2023-03-11T14:41:00;2.83;;;1.00;;
12884;SDS011;6510;51.362;7.370;2023-03-11T14:43:31;1.67;;;1.03;;
12884;SDS011;6510;51.362;7.370;2023-03-11T14:45:59;2.27;;;1.30;;
12884;SDS011;6510;51.362;7.370;2023-03-11T14:48:28;2.43;;;0.93;;
12884;SDS011;6510;51.362;7.370;2023-03-11T14:51:00;1.73;;;1.10;;
12884;SDS011;6510;51.362;7.370;2023-03-11T14:53:44;3.77;;;1.80;;
12884;SDS011;6510;51.362;7.370;2023-03-11T14:56:17;3.30;;;1.80;;
12884;SDS011;6510;51.362;7.370;2023-03-11T14:59:09;2.67;;;1.17;;
12884;SDS011;6510;51.362;7.370;2023-03-11T15:01:42;2.23;;;1.33;;
12884;SDS011;6510;51.362;7.370;2023-03-11T15:06:56;1.40;;;1.17;;
12884;SDS011;6510;51.362;7.370;2023-03-11T15:09:28;3.33;;;1.77;;
12884;SDS011;6510;51.362;7.370;2023-03-11T15:11:58;3.47;;;1.13;;
12884;SDS011;6510;51.362;7.370;2023-03-11T15:14:35;2.50;;;1.63;;
12884;SDS011;6510;51.362;7.370;2023-03-11T15:19:41;3.20;;;1.00;;
12884;SDS011;6510;51.362;7.370;2023-03-11T15:24:56;1.43;;;1.20;;
12884;SDS011;6510;51.362;7.370;2023-03-11T15:27:28;2.13;;;1.20;;
12884;SDS011;6510;51.362;7.370;2023-03-11T15:29:58;3.07;;;1.00;;
12884;SDS011;6510;51.362;7.370;2023-03-11T15:32:46;4.73;;;1.20;;
12884;SDS011;6510;51.362;7.370;2023-03-11T15:35:16;2.00;;;1.10;;
12884;SDS011;6510;51.362;7.370;2023-03-11T15:37:43;1.97;;;1.00;;
12884;SDS011;6510;51.362;7.370;2023-03-11T15:42:48;8.43;;;3.90;;
12884;SDS011;6510;51.362;7.370;2023-03-11T15:45:27;5.63;;;2.60;;
12884;SDS011;6510;51.362;7.370;2023-03-11T15:47:52;4.20;;;2.60;;
12884;SDS011;6510;51.362;7.370;2023-03-11T15:50:19;1.80;;;1.50;;
12884;SDS011;6510;51.362;7.370;2023-03-11T15:52:52;1.63;;;1.33;;
12884;SDS011;6510;51.362;7.370;2023-03-11T15:55:20;6.67;;;3.13;;
12884;SDS011;6510;51.362;7.370;2023-03-11T15:57:55;3.50;;;2.50;;
12884;SDS011;6510;51.362;7.370;2023-03-11T16:00:27;3.53;;;1.87;;
12884;SDS011;6510;51.362;7.370;2023-03-11T16:02:53;5.30;;;1.87;;
12884;SDS011;6510;51.362;7.370;2023-03-11T16:05:22;12.80;;;5.00;;
12884;SDS011;6510;51.362;7.370;2023-03-11T16:07:49;7.77;;;3.70;;
12884;SDS011;6510;51.362;7.370;2023-03-11T16:10:19;6.63;;;2.60;;
12884;SDS011;6510;51.362;7.370;2023-03-11T16:12:46;7.77;;;2.10;;
12884;SDS011;6510;51.362;7.370;2023-03-11T16:15:15;7.77;;;2.03;;
12884;SDS011;6510;51.362;7.370;2023-03-11T16:17:43;5.70;;;2.10;;
12884;SDS011;6510;51.362;7.370;2023-03-11T16:20:09;2.60;;;1.70;;
12884;SDS011;6510;51.362;7.370;2023-03-11T16:22:35;7.43;;;2.40;;
12884;SDS011;6510;51.362;7.370;2023-03-11T16:25:02;2.20;;;2.00;;
12884;SDS011;6510;51.362;7.370;2023-03-11T16:27:28;4.83;;;2.17;;
12884;SDS011;6510;51.362;7.370;2023-03-11T16:29:54;2.00;;;1.70;;
12884;SDS011;6510;51.362;7.370;2023-03-11T16:32:20;3.83;;;1.63;;
12884;SDS011;6510;51.362;7.370;2023-03-11T16:34:46;2.70;;;1.43;;
12884;SDS011;6510;51.362;7.370;2023-03-11T16:37:15;2.77;;;1.53;;
12884;SDS011;6510;51.362;7.370;2023-03-11T16:39:44;4.57;;;3.83;;
12884;SDS011;6510;51.362;7.370;2023-03-11T16:42:12;4.73;;;3.00;;
12884;SDS011;6510;51.362;7.370;2023-03-11T16:44:38;14.60;;;10.30;;
12884;SDS011;6510;51.362;7.370;2023-03-11T16:47:03;25.40;;;17.50;;
12884;SDS011;6510;51.362;7.370;2023-03-11T16:49:29;29.97;;;19.70;;
12884;SDS011;6510;51.362;7.370;2023-03-11T16:51:54;6.43;;;3.00;;
12884;SDS011;6510;51.362;7.370;2023-03-11T16:54:20;16.03;;;7.73;;
12884;SDS011;6510;51.362;7.370;2023-03-11T16:56:46;19.83;;;10.90;;
12884;SDS011;6510;51.362;7.370;2023-03-11T16:59:11;11.07;;;5.43;;
12884;SDS011;6510;51.362;7.370;2023-03-11T17:01:37;3.73;;;3.27;;
12884;SDS011;6510;51.362;7.370;2023-03-11T17:04:06;5.73;;;2.30;;
12884;SDS011;6510;51.362;7.370;2023-03-11T17:06:32;4.90;;;2.40;;
12884;SDS011;6510;51.362;7.370;2023-03-11T17:08:58;5.87;;;4.33;;
12884;SDS011;6510;51.362;7.370;2023-03-11T17:11:24;9.37;;;6.47;;
12884;SDS011;6510;51.362;7.370;2023-03-11T17:13:52;5.93;;;3.20;;
12884;SDS011;6510;51.362;7.370;2023-03-11T17:16:18;11.07;;;8.00;;